createdAt,value
2023-01-13T00:00:10.553Z,64.98
2023-01-13T00:02:40.215Z,65.35
2023-01-13T00:05:07.508Z,65.14
2023-01-13T00:07:34.342Z,64.96
2023-01-13T00:10:01.238Z,65.65
2023-01-13T00:12:28.113Z,65.30
2023-01-13T00:14:54.985Z,65.21
2023-01-13T00:17:22.944Z,65.40
2023-01-13T00:19:49.896Z,64.64
2023-01-13T00:22:16.879Z,65.03
2023-01-13T00:24:43.716Z,64.48
2023-01-13T00:27:10.590Z,65.03
2023-01-13T00:29:37.698Z,65.61
2023-01-13T00:32:04.633Z,65.12
2023-01-13T00:34:31.754Z,65.55
2023-01-13T00:36:58.601Z,64.87
2023-01-13T00:39:25.484Z,64.85
2023-01-13T00:41:52.329Z,64.88
2023-01-13T00:44:19.378Z,64.60
2023-01-13T00:46:46.269Z,64.46
2023-01-13T00:49:13.216Z,64.54
2023-01-13T00:51:40.055Z,64.57
2023-01-13T00:54:07.047Z,63.62
2023-01-13T00:56:40.246Z,64.31
2023-01-13T00:59:12.011Z,64.40
2023-01-13T01:01:40.021Z,64.67
2023-01-13T01:04:07.272Z,64.63
2023-01-13T01:06:34.259Z,64.74
2023-01-13T01:09:01.150Z,64.53
2023-01-13T01:11:30.505Z,64.56
2023-01-13T01:13:59.975Z,64.46
2023-01-13T01:16:28.675Z,65.04
2023-01-13T01:18:56.419Z,65.67
2023-01-13T01:21:26.174Z,65.98
2023-01-13T01:23:53.611Z,64.98
2023-01-13T01:26:25.651Z,65.23
2023-01-13T01:28:52.855Z,64.71
2023-01-13T01:31:22.712Z,64.69
2023-01-13T01:33:50.309Z,64.95
2023-01-13T01:36:18.988Z,64.81
2023-01-13T01:38:47.178Z,65.38
2023-01-13T01:41:22.960Z,66.26
2023-01-13T01:44:31.387Z,65.74
2023-01-13T01:46:58.550Z,64.93
2023-01-13T01:49:34.935Z,65.51
2023-01-13T01:52:06.683Z,65.74
2023-01-13T01:54:57.237Z,65.39
2023-01-13T01:57:49.165Z,65.96
2023-01-13T02:00:16.375Z,65.81
2023-01-13T02:02:46.387Z,65.90
2023-01-13T02:05:14.120Z,66.35
2023-01-13T02:07:43.356Z,66.42
2023-01-13T02:10:14.455Z,65.75
2023-01-13T02:12:44.266Z,65.57
2023-01-13T02:15:20.017Z,65.57
2023-01-13T02:17:52.795Z,66.13
2023-01-13T02:20:28.957Z,66.01
2023-01-13T02:23:07.592Z,65.65
2023-01-13T02:25:59.837Z,65.90
2023-01-13T02:28:48.757Z,66.10
2023-01-13T02:31:15.990Z,65.89
2023-01-13T02:34:09.682Z,66.37
2023-01-13T02:36:53.648Z,66.07
2023-01-13T02:39:46.180Z,66.98
2023-01-13T02:42:34.759Z,66.99
2023-01-13T02:45:12.313Z,67.22
2023-01-13T02:47:44.177Z,66.92
2023-01-13T02:50:17.994Z,66.46
2023-01-13T02:53:06.216Z,66.75
2023-01-13T02:55:45.882Z,67.41
2023-01-13T02:58:18.063Z,66.75
2023-01-13T03:00:46.649Z,66.76
2023-01-13T03:03:14.259Z,67.05
2023-01-13T03:05:44.426Z,67.00
2023-01-13T03:08:32.738Z,66.72
2023-01-13T03:11:12.042Z,66.86
2023-01-13T03:13:55.523Z,66.54
2023-01-13T03:16:50.240Z,66.75
2023-01-13T03:19:44.459Z,66.89
2023-01-13T03:22:31.772Z,67.30
2023-01-13T03:25:15.778Z,67.06
2023-01-13T03:27:49.104Z,66.60
2023-01-13T03:30:34.428Z,66.87
2023-01-13T03:33:16.960Z,67.54
2023-01-13T03:35:48.111Z,66.96
2023-01-13T03:38:21.739Z,66.49
2023-01-13T03:40:56.024Z,67.49
2023-01-13T03:43:36.263Z,67.07
2023-01-13T03:46:11.252Z,67.08
2023-01-13T03:48:43.057Z,67.53
2023-01-13T03:51:15.278Z,66.92
2023-01-13T03:54:11.465Z,67.20
2023-01-13T03:57:10.115Z,66.63
2023-01-13T03:59:42.665Z,67.34
2023-01-13T04:02:17.578Z,67.49
2023-01-13T04:05:02.509Z,67.38
2023-01-13T04:07:59.103Z,67.18
2023-01-13T04:10:35.486Z,66.77
2023-01-13T04:13:11.650Z,66.19
2023-01-13T04:15:42.713Z,66.06
2023-01-13T04:18:29.880Z,66.84
2023-01-13T04:20:59.707Z,65.99
2023-01-13T04:23:27.313Z,65.34
2023-01-13T04:25:55.161Z,65.40
2023-01-13T04:28:22.868Z,65.40
2023-01-13T04:30:49.922Z,65.94
2023-01-13T04:33:18.672Z,65.95
2023-01-13T04:35:47.345Z,65.55
2023-01-13T04:38:16.968Z,66.47
2023-01-13T04:40:44.549Z,65.91
2023-01-13T04:43:12.139Z,65.24
2023-01-13T04:45:39.206Z,65.21
2023-01-13T04:48:06.442Z,65.46
2023-01-13T04:50:34.811Z,65.19
2023-01-13T04:53:01.623Z,66.09
2023-01-13T04:55:28.603Z,66.68
2023-01-13T04:57:55.516Z,66.24
2023-01-13T05:00:23.399Z,66.57
2023-01-13T05:02:51.696Z,65.96
2023-01-13T05:05:19.030Z,66.90
2023-01-13T05:07:46.077Z,66.56
2023-01-13T05:10:13.241Z,66.27
2023-01-13T05:12:40.337Z,66.32
2023-01-13T05:15:08.026Z,66.83
2023-01-13T05:17:36.021Z,65.90
2023-01-13T05:20:03.778Z,66.14
2023-01-13T05:22:30.630Z,65.57
2023-01-13T05:24:57.551Z,65.47
2023-01-13T05:27:24.538Z,65.20
2023-01-13T05:29:51.637Z,64.53
2023-01-13T05:32:18.543Z,64.82
2023-01-13T05:34:45.450Z,64.43
2023-01-13T05:37:12.273Z,64.46
2023-01-13T05:39:40.364Z,64.43
2023-01-13T05:42:08.206Z,64.80
2023-01-13T05:44:35.137Z,63.57
2023-01-13T05:47:02.058Z,64.83
2023-01-13T05:49:28.936Z,64.70
2023-01-13T05:51:55.806Z,64.19
2023-01-13T05:54:22.628Z,64.70
2023-01-13T05:56:49.503Z,64.15
2023-01-13T05:59:16.391Z,64.31
2023-01-13T06:01:43.253Z,64.36
2023-01-13T06:04:10.167Z,65.07
2023-01-13T06:06:36.992Z,65.41
2023-01-13T06:09:03.928Z,65.14
2023-01-13T06:11:31.072Z,64.99
2023-01-13T06:13:57.923Z,65.16
2023-01-13T06:16:24.906Z,65.56
2023-01-13T06:18:51.811Z,64.76
2023-01-13T06:21:18.717Z,64.57
2023-01-13T06:23:45.572Z,65.09
2023-01-13T06:26:20.705Z,65.62
2023-01-13T06:28:47.668Z,65.92
2023-01-13T06:31:14.714Z,64.90
2023-01-13T06:33:49.503Z,64.91
2023-01-13T06:36:24.552Z,65.01
2023-01-13T06:38:57.800Z,64.82
2023-01-13T06:41:28.828Z,64.71
2023-01-13T06:43:55.996Z,64.74
2023-01-13T06:46:22.918Z,65.51
2023-01-13T06:48:49.819Z,66.11
2023-01-13T06:51:16.656Z,65.27
2023-01-13T06:53:43.616Z,65.19
2023-01-13T06:56:10.430Z,64.52
2023-01-13T06:58:37.330Z,64.02
2023-01-13T07:01:04.303Z,64.67
2023-01-13T07:03:31.309Z,64.97
2023-01-13T07:05:58.178Z,64.00
2023-01-13T07:08:25.275Z,64.27
2023-01-13T07:10:52.294Z,64.05
2023-01-13T07:13:19.307Z,63.84
2023-01-13T07:15:56.168Z,63.59
2023-01-13T07:18:23.208Z,62.77
2023-01-13T07:21:07.262Z,62.80
2023-01-13T07:23:40.027Z,63.25
2023-01-13T07:26:10.814Z,63.10
2023-01-13T07:28:38.844Z,63.66
2023-01-13T07:31:12.386Z,63.14
2023-01-13T07:33:39.484Z,62.74
2023-01-13T07:36:06.959Z,63.57
2023-01-13T07:38:34.696Z,63.75
2023-01-13T07:41:02.917Z,63.11
2023-01-13T07:43:29.858Z,62.93
2023-01-13T07:45:58.685Z,64.15
2023-01-13T07:48:26.804Z,63.68
2023-01-13T07:50:54.418Z,63.74
2023-01-13T07:53:22.579Z,63.91
2023-01-13T07:55:49.415Z,62.78
2023-01-13T07:58:16.359Z,63.07
2023-01-13T08:00:43.436Z,63.32
2023-01-13T08:03:10.520Z,62.76
2023-01-13T08:05:37.374Z,62.86
2023-01-13T08:08:04.486Z,63.29
2023-01-13T08:10:31.392Z,62.67
2023-01-13T08:12:58.401Z,62.46
2023-01-13T08:15:25.245Z,63.04
2023-01-13T08:17:52.241Z,62.99
2023-01-13T08:20:19.188Z,62.89
2023-01-13T08:22:46.155Z,62.08
2023-01-13T08:25:13.412Z,62.57
2023-01-13T08:27:40.383Z,62.02
2023-01-13T08:30:07.950Z,62.50
2023-01-13T08:32:35.062Z,62.54
2023-01-13T08:35:01.905Z,62.00
2023-01-13T08:37:28.973Z,61.83
2023-01-13T08:39:55.894Z,62.14
2023-01-13T08:42:22.836Z,62.18
2023-01-13T08:44:49.707Z,61.76
2023-01-13T08:47:16.696Z,61.82
2023-01-13T08:49:43.769Z,61.42
2023-01-13T08:52:10.847Z,61.67
2023-01-13T08:54:39.766Z,61.80
2023-01-13T08:57:07.335Z,61.64
2023-01-13T08:59:34.517Z,62.42
2023-01-13T09:02:01.787Z,61.45
2023-01-13T09:04:29.233Z,62.02
2023-01-13T09:06:56.791Z,60.79
2023-01-13T09:09:23.879Z,61.21
2023-01-13T09:11:51.578Z,61.41
2023-01-13T09:14:20.771Z,61.65
2023-01-13T09:16:47.856Z,60.96
2023-01-13T09:19:15.207Z,61.61
2023-01-13T09:21:42.477Z,61.35
2023-01-13T09:24:09.647Z,61.56
2023-01-13T09:26:37.983Z,61.21
2023-01-13T09:29:05.273Z,61.14
2023-01-13T09:31:32.472Z,61.19
2023-01-13T09:33:59.614Z,61.43
2023-01-13T09:36:26.601Z,61.44
2023-01-13T09:38:53.454Z,60.96
2023-01-13T09:41:23.911Z,60.93
2023-01-13T09:43:57.733Z,60.78
2023-01-13T09:46:33.690Z,61.09
2023-01-13T09:49:01.707Z,61.30
2023-01-13T09:51:36.187Z,61.33
2023-01-13T09:54:11.484Z,62.38
2023-01-13T09:56:38.525Z,63.96
2023-01-13T09:59:05.418Z,61.79
2023-01-13T10:01:58.162Z,62.72
2023-01-13T10:04:25.852Z,62.50
2023-01-13T10:06:56.984Z,62.53
2023-01-13T10:09:51.753Z,62.64
2023-01-13T10:12:26.095Z,62.02
2023-01-13T10:14:56.020Z,62.12
2023-01-13T10:17:37.744Z,63.11
2023-01-13T10:20:07.439Z,62.92
2023-01-13T10:23:02.936Z,63.21
2023-01-13T10:25:55.890Z,63.07
2023-01-13T10:28:22.806Z,61.86
2023-01-13T10:30:50.162Z,62.37
2023-01-13T10:33:21.077Z,62.10
2023-01-13T10:35:50.758Z,63.11
2023-01-13T10:38:20.405Z,63.65
2023-01-13T10:40:49.820Z,63.09
2023-01-13T10:43:16.771Z,62.21
2023-01-13T10:46:02.275Z,63.30
2023-01-13T10:48:53.239Z,62.62
2023-01-13T10:51:30.572Z,62.42
2023-01-13T10:54:03.164Z,61.67
2023-01-13T10:56:34.052Z,61.21
2023-01-13T10:59:26.520Z,61.77
2023-01-13T11:02:12.992Z,61.61
2023-01-13T11:04:53.546Z,61.63
2023-01-13T11:07:46.286Z,61.82
2023-01-13T11:10:19.197Z,61.86
2023-01-13T11:13:12.211Z,61.00
2023-01-13T11:15:51.951Z,61.55
2023-01-13T11:18:40.485Z,61.91
2023-01-13T11:21:26.673Z,62.39
2023-01-13T11:24:12.157Z,62.29
2023-01-13T11:27:04.416Z,63.38
2023-01-13T11:30:00.092Z,63.01
2023-01-13T11:32:31.287Z,62.41
2023-01-13T11:35:03.505Z,63.17
2023-01-13T11:37:40.827Z,62.45
2023-01-13T11:40:14.565Z,62.77
2023-01-13T11:43:16.834Z,62.29
2023-01-13T11:45:52.016Z,63.14
2023-01-13T11:48:22.483Z,63.28
2023-01-13T11:50:58.615Z,62.70
2023-01-13T11:53:37.458Z,63.31
2023-01-13T11:56:35.598Z,62.82
2023-01-13T11:59:05.404Z,62.57
2023-01-13T12:01:58.269Z,63.49
2023-01-13T12:04:29.773Z,63.20
2023-01-13T12:07:16.303Z,64.07
2023-01-13T12:09:53.859Z,63.28
2023-01-13T12:12:39.044Z,63.48
2023-01-13T12:15:21.311Z,62.80
2023-01-13T12:18:03.772Z,63.12
2023-01-13T12:20:39.973Z,63.64
2023-01-13T12:23:15.372Z,63.35
2023-01-13T12:25:49.655Z,63.45
2023-01-13T12:28:38.198Z,63.59
2023-01-13T12:31:06.327Z,62.97
2023-01-13T12:33:51.634Z,63.13
2023-01-13T12:36:27.543Z,63.19
2023-01-13T12:39:17.371Z,63.36
2023-01-13T12:41:58.319Z,64.00
2023-01-13T12:44:25.229Z,63.50
2023-01-13T12:46:54.404Z,63.85
2023-01-13T12:49:27.229Z,64.48
2023-01-13T12:51:56.789Z,64.39
2023-01-13T12:54:41.974Z,63.74
2023-01-13T12:57:15.105Z,63.96
2023-01-13T12:59:42.430Z,64.23
2023-01-13T13:02:13.018Z,63.57
2023-01-13T13:04:44.353Z,64.36
2023-01-13T13:07:17.083Z,64.22
2023-01-13T13:09:49.550Z,64.51
2023-01-13T13:12:31.533Z,64.52
2023-01-13T13:14:58.508Z,65.06
2023-01-13T13:17:28.420Z,64.23
2023-01-13T13:19:57.240Z,63.90
2023-01-13T13:22:26.856Z,64.44
2023-01-13T13:24:56.582Z,65.35
2023-01-13T13:27:39.000Z,65.10
2023-01-13T13:30:14.861Z,64.52
2023-01-13T13:32:47.629Z,63.81
2023-01-13T13:36:02.730Z,64.63
2023-01-13T13:38:51.366Z,64.26
2023-01-13T13:41:21.888Z,64.50
2023-01-13T13:43:49.161Z,63.96
2023-01-13T13:46:28.551Z,64.61
2023-01-13T13:48:55.610Z,64.06
2023-01-13T13:51:33.395Z,64.69
2023-01-13T13:54:00.798Z,64.30
2023-01-13T13:56:32.462Z,63.88
2023-01-13T13:58:59.416Z,64.08
2023-01-13T14:01:36.713Z,63.80
2023-01-13T14:04:15.032Z,64.09
2023-01-13T14:06:55.796Z,63.29
2023-01-13T14:09:24.583Z,63.95
2023-01-13T14:11:58.997Z,64.37
2023-01-13T14:14:26.359Z,64.13
2023-01-13T14:16:53.474Z,64.33
2023-01-13T14:19:35.424Z,64.28
2023-01-13T14:22:04.650Z,64.53
2023-01-13T14:24:32.288Z,64.99
2023-01-13T14:27:17.409Z,64.15
2023-01-13T14:29:45.179Z,65.71
2023-01-13T14:32:20.057Z,64.47
2023-01-13T14:34:47.521Z,64.90
2023-01-13T14:37:36.306Z,64.70
2023-01-13T14:40:04.017Z,64.10
2023-01-13T14:42:30.916Z,64.11
2023-01-13T14:44:58.167Z,63.72
2023-01-13T14:47:32.839Z,64.55
2023-01-13T14:50:11.990Z,64.74
2023-01-13T14:52:51.219Z,64.47
2023-01-13T14:55:31.377Z,64.93
2023-01-13T14:58:23.172Z,64.74
2023-01-13T15:00:51.763Z,64.18
2023-01-13T15:03:20.749Z,65.05
2023-01-13T15:05:52.908Z,64.97
2023-01-13T15:08:27.594Z,65.50
2023-01-13T15:11:03.011Z,64.78
2023-01-13T15:13:42.076Z,64.88
2023-01-13T15:16:24.051Z,65.00
2023-01-13T15:18:51.690Z,64.28
2023-01-13T15:21:21.144Z,63.57
2023-01-13T15:23:48.089Z,64.04
2023-01-13T15:26:21.894Z,64.34
2023-01-13T15:28:50.245Z,64.75
2023-01-13T15:31:17.671Z,64.49
2023-01-13T15:33:44.701Z,64.71
2023-01-13T15:36:32.084Z,64.66
2023-01-13T15:39:00.713Z,64.67
2023-01-13T15:41:27.872Z,64.72
2023-01-13T15:43:54.802Z,64.72
2023-01-13T15:46:22.383Z,64.82
2023-01-13T15:48:53.076Z,64.32
2023-01-13T15:51:21.814Z,63.42
2023-01-13T15:53:48.697Z,64.51
2023-01-13T15:56:36.330Z,63.87
2023-01-13T15:59:05.013Z,64.48
2023-01-13T16:01:31.873Z,64.35
2023-01-13T16:03:58.900Z,64.62
2023-01-13T16:06:30.566Z,63.69
2023-01-13T16:08:57.505Z,63.98
2023-01-13T16:11:24.381Z,64.48
2023-01-13T16:13:51.406Z,64.90
2023-01-13T16:16:24.133Z,64.54
2023-01-13T16:18:52.402Z,65.16
2023-01-13T16:21:20.602Z,65.83
2023-01-13T16:23:49.396Z,65.60
2023-01-13T16:26:22.520Z,65.80
2023-01-13T16:28:51.857Z,64.73
2023-01-13T16:31:24.782Z,65.44
2023-01-13T16:33:52.330Z,65.04
2023-01-13T16:36:20.653Z,65.13
2023-01-13T16:38:49.595Z,65.63
2023-01-13T16:41:16.866Z,64.26
2023-01-13T16:43:44.011Z,65.44
2023-01-13T16:46:22.062Z,65.30
2023-01-13T16:48:50.427Z,64.41
2023-01-13T16:51:17.271Z,64.61
2023-01-13T16:53:44.668Z,65.61
2023-01-13T16:56:23.028Z,65.06
2023-01-13T16:58:52.231Z,64.53
2023-01-13T17:01:28.477Z,65.01
2023-01-13T17:03:58.531Z,64.73
2023-01-13T17:06:33.390Z,65.05
2023-01-13T17:09:04.655Z,65.19
2023-01-13T17:11:31.749Z,64.50
2023-01-13T17:13:59.310Z,65.09
2023-01-13T17:16:26.640Z,63.62
2023-01-13T17:18:54.028Z,64.63
2023-01-13T17:21:21.069Z,65.28
2023-01-13T17:23:47.953Z,64.76
2023-01-13T17:26:31.606Z,65.08
2023-01-13T17:29:04.498Z,64.41
2023-01-13T17:31:32.053Z,64.27
2023-01-13T17:33:58.998Z,64.07
2023-01-13T17:36:25.966Z,64.22
2023-01-13T17:38:53.931Z,64.61
2023-01-13T17:41:21.259Z,64.93
2023-01-13T17:43:48.214Z,64.89
2023-01-13T17:46:16.849Z,64.88
2023-01-13T17:48:43.698Z,65.50
2023-01-13T17:51:13.588Z,64.98
2023-01-13T17:53:40.493Z,64.69
2023-01-13T17:56:08.977Z,65.19
2023-01-13T17:58:37.441Z,65.49
2023-01-13T18:01:22.947Z,65.35
2023-01-13T18:03:50.189Z,65.65
2023-01-13T18:06:20.706Z,65.38
2023-01-13T18:08:48.187Z,64.82
2023-01-13T18:11:16.587Z,65.06
2023-01-13T18:13:49.181Z,64.74
2023-01-13T18:16:18.194Z,64.60
2023-01-13T18:18:47.102Z,65.16
2023-01-13T18:21:25.600Z,65.47
2023-01-13T18:23:53.709Z,65.06
2023-01-13T18:26:21.040Z,64.65
2023-01-13T18:28:48.043Z,65.15
2023-01-13T18:31:14.916Z,64.47
2023-01-13T18:33:41.881Z,64.21
2023-01-13T18:36:09.299Z,64.44
2023-01-13T18:38:36.290Z,64.21
2023-01-13T18:41:05.169Z,64.11
2023-01-13T18:43:33.456Z,64.23
2023-01-13T18:46:00.922Z,63.24
2023-01-13T18:48:31.790Z,63.67
2023-01-13T18:50:58.727Z,64.19
2023-01-13T18:53:25.662Z,63.82
2023-01-13T18:55:52.635Z,63.62
2023-01-13T18:58:19.710Z,64.09
2023-01-13T19:00:46.585Z,63.77
2023-01-13T19:03:13.408Z,64.34
2023-01-13T19:05:40.637Z,64.77
2023-01-13T19:08:07.464Z,64.57
2023-01-13T19:10:34.349Z,64.53
2023-01-13T19:13:02.775Z,65.41
2023-01-13T19:15:29.996Z,65.17
2023-01-13T19:17:56.978Z,65.29
2023-01-13T19:20:23.971Z,65.39
2023-01-13T19:22:51.759Z,64.92
2023-01-13T19:25:18.598Z,65.31
2023-01-13T19:27:45.452Z,64.39
2023-01-13T19:30:13.059Z,65.07
2023-01-13T19:32:39.904Z,65.34
2023-01-13T19:35:07.131Z,64.87
2023-01-13T19:37:34.467Z,64.86
2023-01-13T19:40:01.313Z,65.14
2023-01-13T19:42:28.340Z,64.72
2023-01-13T19:44:55.393Z,65.22
2023-01-13T19:47:22.252Z,64.64
2023-01-13T19:49:49.151Z,64.56
2023-01-13T19:52:16.029Z,65.40
2023-01-13T19:54:45.343Z,65.14
2023-01-13T19:57:14.253Z,65.55
2023-01-13T19:59:42.129Z,65.38
2023-01-13T20:02:21.006Z,65.07
2023-01-13T20:04:47.865Z,64.76
2023-01-13T20:07:15.011Z,65.39
2023-01-13T20:09:42.275Z,64.99
2023-01-13T20:12:11.776Z,65.44
2023-01-13T20:14:38.859Z,64.84
2023-01-13T20:17:06.003Z,64.65
2023-01-13T20:19:33.521Z,64.60
2023-01-13T20:22:00.396Z,64.61
2023-01-13T20:24:27.383Z,64.41
2023-01-13T20:26:54.685Z,64.69
2023-01-13T20:29:22.259Z,64.88
2023-01-13T20:31:49.888Z,64.69
2023-01-13T20:34:18.153Z,65.00
2023-01-13T20:36:46.193Z,64.97
2023-01-13T20:39:24.337Z,65.24
2023-01-13T20:41:51.753Z,64.94
2023-01-13T20:44:18.875Z,64.70
2023-01-13T20:46:45.827Z,64.98
2023-01-13T20:49:14.931Z,64.12
2023-01-13T20:51:43.295Z,64.86
2023-01-13T20:54:11.024Z,65.01
2023-01-13T20:56:38.402Z,64.29
2023-01-13T20:59:05.303Z,63.46
2023-01-13T21:01:32.680Z,63.50
2023-01-13T21:04:01.299Z,64.03
2023-01-13T21:06:30.382Z,64.23
2023-01-13T21:08:57.989Z,63.93
2023-01-13T21:11:27.422Z,64.42
2023-01-13T21:13:54.288Z,64.12
2023-01-13T21:16:21.700Z,64.85
2023-01-13T21:18:48.553Z,64.64
2023-01-13T21:21:15.798Z,64.32
2023-01-13T21:23:44.545Z,64.18
2023-01-13T21:26:13.484Z,64.03
2023-01-13T21:28:40.470Z,64.38
2023-01-13T21:31:10.430Z,64.10
2023-01-13T21:33:38.316Z,64.34
2023-01-13T21:36:11.853Z,63.48
2023-01-13T21:38:38.879Z,63.87
2023-01-13T21:41:07.918Z,63.92
2023-01-13T21:43:36.460Z,62.74
2023-01-13T21:46:05.388Z,63.15
2023-01-13T21:48:32.452Z,62.48
2023-01-13T21:51:02.485Z,62.81
2023-01-13T21:53:29.507Z,63.25
2023-01-13T21:55:56.307Z,62.51
2023-01-13T21:58:23.309Z,62.16
2023-01-13T22:00:50.259Z,63.35
2023-01-13T22:03:17.267Z,62.60
2023-01-13T22:05:44.040Z,62.83
2023-01-13T22:08:12.773Z,62.45
2023-01-13T22:10:39.660Z,62.81
2023-01-13T22:13:06.596Z,62.55
2023-01-13T22:15:33.432Z,62.43
2023-01-13T22:18:00.304Z,62.78
2023-01-13T22:20:27.258Z,63.32
2023-01-13T22:22:54.231Z,63.35
2023-01-13T22:25:21.098Z,63.32
2023-01-13T22:27:48.085Z,63.59
2023-01-13T22:30:17.827Z,63.30
2023-01-13T22:32:45.667Z,62.61
2023-01-13T22:35:14.156Z,63.30
2023-01-13T22:37:41.813Z,62.88
2023-01-13T22:40:11.502Z,63.27
2023-01-13T22:42:42.933Z,63.51
2023-01-13T22:45:14.069Z,63.28
2023-01-13T22:47:41.095Z,63.08
2023-01-13T22:50:10.122Z,63.57
2023-01-13T22:52:37.070Z,63.34
2023-01-13T22:55:04.494Z,63.90
2023-01-13T22:57:36.389Z,63.27
2023-01-13T23:00:06.486Z,63.49
2023-01-13T23:02:33.529Z,62.87
2023-01-13T23:05:00.437Z,62.79
2023-01-13T23:07:27.308Z,63.44
2023-01-13T23:09:54.212Z,63.01
2023-01-13T23:12:21.021Z,62.53
2023-01-13T23:14:47.962Z,62.99
2023-01-13T23:17:14.815Z,62.94
2023-01-13T23:19:41.858Z,63.47
2023-01-13T23:22:08.924Z,63.03
2023-01-13T23:24:35.898Z,62.92
2023-01-13T23:27:02.717Z,63.00
2023-01-13T23:29:29.602Z,63.17
2023-01-13T23:31:56.468Z,63.35
2023-01-13T23:34:23.666Z,63.59
2023-01-13T23:36:50.477Z,64.12
2023-01-13T23:39:17.439Z,63.44
2023-01-13T23:41:44.297Z,62.95
2023-01-13T23:44:11.194Z,64.20
2023-01-13T23:46:38.088Z,63.34
2023-01-13T23:49:05.127Z,63.02
2023-01-13T23:51:32.303Z,63.62
2023-01-13T23:53:59.808Z,63.47
2023-01-13T23:56:30.273Z,62.62
2023-01-13T23:58:57.383Z,62.58
